PWSweather.com
Personal Weather Stations
Station Observations

OlomoucCZ

Lat: 49.5936202181, Lon: 17.2276005149

Elevation: 752

Station Type: Davis Vantage Pro 2 Activ

http://infopocasi-olomouc.cz

High Low Average
Temperature 42.5°F5.8°C 36.1°F2.3°C 38.4°F3.6°C
Dew Point 37.7°F3.2°C 34.4°F1.3°C 36.0°F2.2°C
Winds 12.7 mph 20.4 kmh Calm Calm 4.0 mph SSE6.4 kmh SSE
Wind Gusts 16.1 mph25.9 kmh -- 7.0 mph11.3 kmh
Humidity 95% 82% 91%
Pressure 29.72 in1006.4 mb 29.18 in988.1 mb -
Precipitation 0.03 in0.8 mm - -
Hour Temp Dew Point Humidity Winds Wind Gusts Pressure Precip Precip Rate Daily Precip Total
12:00 AM 36.7°F2.6°C 34.6°F1.4°C 92% Calm Calm 1.2 mph1.9 kmh 29.72 in1006.4 mb - 0.00 in0.0 mm 0.00 in0.0 mm
12:30 AM 36.1°F2.3°C 34.6°F1.4°C 94% Calm Calm -- 29.70 in1005.8 mb - 0.00 in0.0 mm 0.00 in0.0 mm
01:00 AM 36.2°F2.3°C 34.9°F1.6°C 95% Calm Calm 1.2 mph1.9 kmh 29.70 in1005.8 mb - 0.00 in0.0 mm 0.00 in0.0 mm
01:30 AM 36.6°F2.6°C 35.3°F1.8°C 95% 1.2 mph SE1.9 kmh SE 2.3 mph3.7 kmh 29.70 in1005.8 mb - 0.00 in0.0 mm 0.00 in0.0 mm
02:00 AM 36.7°F2.6°C 35.4°F1.9°C 95% Calm Calm 1.2 mph1.9 kmh 29.70 in1005.8 mb - 0.00 in0.0 mm 0.00 in0.0 mm
02:30 AM 36.3°F2.4°C 35.0°F1.7°C 95% Calm Calm -- 29.70 in1005.8 mb - 0.00 in0.0 mm 0.00 in0.0 mm
03:00 AM 36.6°F2.6°C 35.0°F1.7°C 94% 1.2 mph SE1.9 kmh SE 2.3 mph3.7 kmh 29.69 in1005.4 mb - 0.00 in0.0 mm 0.00 in0.0 mm
03:30 AM 36.7°F2.6°C 34.9°F1.6°C 93% 2.3 mph SE3.7 kmh SE 3.5 mph5.6 kmh 29.69 in1005.4 mb - 0.00 in0.0 mm 0.00 in0.0 mm
04:00 AM 36.6°F2.6°C 34.8°F1.6°C 93% Calm Calm -- 29.68 in1005.1 mb - 0.00 in0.0 mm 0.00 in0.0 mm
04:30 AM 36.9°F2.7°C 35.1°F1.7°C 93% 4.6 mph SE7.4 kmh SE 4.6 mph7.4 kmh 29.67 in1004.7 mb - 0.00 in0.0 mm 0.00 in0.0 mm
05:00 AM 36.8°F2.7°C 34.7°F1.5°C 92% 1.2 mph SSE1.9 kmh SSE 3.5 mph5.6 kmh 29.67 in1004.7 mb - 0.00 in0.0 mm 0.00 in0.0 mm
05:30 AM 36.5°F2.5°C 34.4°F1.3°C 92% Calm Calm -- 29.67 in1004.7 mb - 0.00 in0.0 mm 0.00 in0.0 mm
06:00 AM 36.9°F2.7°C 35.3°F1.8°C 94% 2.3 mph WSW3.7 kmh WSW 3.5 mph5.6 kmh 29.67 in1004.7 mb - 0.00 in0.0 mm 0.01 in0.3 mm
06:30 AM 37.0°F2.8°C 35.4°F1.9°C 94% 2.3 mph SW3.7 kmh SW 4.6 mph7.4 kmh 29.68 in1005.1 mb - 0.00 in0.0 mm 0.01 in0.3 mm
07:00 AM 37.1°F2.8°C 35.3°F1.8°C 93% Calm Calm 3.5 mph5.6 kmh 29.67 in1004.7 mb - 0.00 in0.0 mm 0.01 in0.3 mm
07:30 AM 36.8°F2.7°C 35.0°F1.7°C 93% 2.3 mph S3.7 kmh S 3.5 mph5.6 kmh 29.67 in1004.7 mb - 0.00 in0.0 mm 0.01 in0.3 mm
08:00 AM 36.8°F2.7°C 35.0°F1.7°C 93% 3.5 mph SE5.6 kmh SE 4.6 mph7.4 kmh 29.67 in1004.7 mb - 0.00 in0.0 mm 0.01 in0.3 mm
08:30 AM 36.7°F2.6°C 34.9°F1.6°C 93% 3.5 mph SE5.6 kmh SE 3.5 mph5.6 kmh 29.67 in1004.7 mb - 0.00 in0.0 mm 0.01 in0.3 mm
09:00 AM 37.0°F2.8°C 35.4°F1.9°C 94% 2.3 mph SE3.7 kmh SE 3.5 mph5.6 kmh 29.66 in1004.4 mb - 0.00 in0.0 mm 0.01 in0.3 mm
09:30 AM 38.6°F3.7°C 36.2°F2.3°C 91% 2.3 mph S3.7 kmh S 3.5 mph5.6 kmh 29.66 in1004.4 mb - 0.00 in0.0 mm 0.01 in0.3 mm
10:00 AM 39.2°F4.0°C 36.5°F2.5°C 90% 2.3 mph S3.7 kmh S 4.6 mph7.4 kmh 29.65 in1004.1 mb - 0.00 in0.0 mm 0.01 in0.3 mm
10:30 AM 39.5°F4.2°C 36.5°F2.5°C 89% 1.2 mph S1.9 kmh S 2.3 mph3.7 kmh 29.64 in1003.7 mb - 0.00 in0.0 mm 0.01 in0.3 mm
11:00 AM 40.5°F4.7°C 37.3°F2.9°C 88% 1.2 mph S1.9 kmh S 2.3 mph3.7 kmh 29.63 in1003.4 mb - 0.00 in0.0 mm 0.01 in0.3 mm
11:30 AM 40.8°F4.9°C 37.2°F2.9°C 87% 3.5 mph WSW5.6 kmh WSW 5.8 mph9.3 kmh 29.62 in1003.0 mb - 0.00 in0.0 mm 0.01 in0.3 mm
12:00 PM 42.1°F5.6°C 37.6°F3.1°C 84% 10.4 mph WSW16.7 kmh WSW 16.1 mph25.9 kmh 29.59 in1002.0 mb - 0.00 in0.0 mm 0.01 in0.3 mm
12:30 PM 41.7°F5.4°C 37.2°F2.9°C 84% 3.5 mph WSW5.6 kmh WSW 6.9 mph11.1 kmh 29.58 in1001.7 mb - 0.00 in0.0 mm 0.01 in0.3 mm
01:00 PM 42.5°F5.8°C 37.7°F3.2°C 83% 6.9 mph SW11.1 kmh SW 12.7 mph20.4 kmh 29.57 in1001.4 mb - 0.00 in0.0 mm 0.01 in0.3 mm
01:30 PM 42.0°F5.6°C 37.2°F2.9°C 83% 8.1 mph SW13.0 kmh SW 16.1 mph25.9 kmh 29.55 in1000.7 mb - 0.00 in0.0 mm 0.01 in0.3 mm
02:00 PM 42.0°F5.6°C 36.9°F2.7°C 82% 4.6 mph SSW7.4 kmh SSW 10.4 mph16.7 kmh 29.53 in1000.0 mb - 0.00 in0.0 mm 0.01 in0.3 mm
02:30 PM 41.7°F5.4°C 36.9°F2.7°C 83% 5.8 mph SW9.3 kmh SW 8.1 mph13.0 kmh 29.51 in999.3 mb - 0.00 in0.0 mm 0.01 in0.3 mm
03:00 PM 40.6°F4.8°C 37.0°F2.8°C 87% 12.7 mph SSW20.4 kmh SSW 16.1 mph25.9 kmh 29.50 in999.0 mb - 0.00 in0.0 mm 0.01 in0.3 mm
03:30 PM 40.3°F4.6°C 37.0°F2.8°C 88% 9.2 mph SSE14.8 kmh SSE 13.8 mph22.2 kmh 29.48 in998.3 mb - 0.00 in0.0 mm 0.01 in0.3 mm
04:00 PM 39.8°F4.3°C 36.8°F2.7°C 89% 5.8 mph SE9.3 kmh SE 10.4 mph16.7 kmh 29.46 in997.6 mb - 0.00 in0.0 mm 0.01 in0.3 mm
04:30 PM 39.3°F4.1°C 36.6°F2.6°C 90% 6.9 mph SE11.1 kmh SE 10.4 mph16.7 kmh 29.44 in997.0 mb - 0.00 in0.0 mm 0.01 in0.3 mm
05:00 PM 39.0°F3.9°C 36.3°F2.4°C 90% 10.4 mph SE16.7 kmh SE 13.8 mph22.2 kmh 29.42 in996.3 mb - 0.00 in0.0 mm 0.01 in0.3 mm
05:30 PM 38.8°F3.8°C 36.1°F2.3°C 90% 9.2 mph SE14.8 kmh SE 11.5 mph18.5 kmh 29.39 in995.3 mb - 0.00 in0.0 mm 0.01 in0.3 mm
06:00 PM 38.8°F3.8°C 36.1°F2.3°C 90% 8.1 mph SSE13.0 kmh SSE 11.5 mph18.5 kmh 29.38 in994.9 mb - 0.00 in0.0 mm 0.01 in0.3 mm
06:30 PM 39.0°F3.9°C 36.3°F2.4°C 90% 6.9 mph S11.1 kmh S 11.5 mph18.5 kmh 29.36 in994.2 mb - 0.00 in0.0 mm 0.01 in0.3 mm
07:00 PM 39.1°F3.9°C 36.4°F2.4°C 90% 8.1 mph SSE13.0 kmh SSE 10.4 mph16.7 kmh 29.34 in993.6 mb - 0.00 in0.0 mm 0.01 in0.3 mm
07:30 PM 39.1°F3.9°C 36.7°F2.6°C 91% 6.9 mph S11.1 kmh S 9.2 mph14.8 kmh 29.33 in993.2 mb - 0.00 in0.0 mm 0.01 in0.3 mm
08:00 PM 39.1°F3.9°C 36.7°F2.6°C 91% 4.6 mph ESE7.4 kmh ESE 6.9 mph11.1 kmh 29.31 in992.6 mb - 0.00 in0.0 mm 0.01 in0.3 mm
08:30 PM 38.4°F3.6°C 36.6°F2.6°C 93% 2.3 mph SE3.7 kmh SE 4.6 mph7.4 kmh 29.30 in992.2 mb - 0.00 in0.0 mm 0.01 in0.3 mm
09:00 PM 38.2°F3.4°C 36.4°F2.4°C 93% 3.5 mph ESE5.6 kmh ESE 3.5 mph5.6 kmh 29.28 in991.5 mb - 0.00 in0.0 mm 0.02 in0.5 mm
09:30 PM 37.5°F3.1°C 35.9°F2.2°C 94% 3.5 mph ESE5.6 kmh ESE 8.1 mph13.0 kmh 29.27 in991.2 mb - 0.00 in0.0 mm 0.02 in0.5 mm
10:00 PM 37.4°F3.0°C 35.8°F2.1°C 94% 4.6 mph SE7.4 kmh SE 8.1 mph13.0 kmh 29.25 in990.5 mb - 0.00 in0.0 mm 0.02 in0.5 mm
10:30 PM 37.7°F3.2°C 36.1°F2.3°C 94% 4.6 mph SE7.4 kmh SE 6.9 mph11.1 kmh 29.23 in989.8 mb - 0.01 in0.3 mm 0.02 in0.5 mm
11:00 PM 37.3°F2.9°C 36.0°F2.2°C 95% 9.2 mph ESE14.8 kmh ESE 10.4 mph16.7 kmh 29.21 in989.2 mb - 0.01 in0.3 mm 0.02 in0.5 mm
11:30 PM 36.7°F2.6°C 35.4°F1.9°C 95% 11.5 mph SE18.5 kmh SE 13.8 mph22.2 kmh 29.18 in988.1 mb - 0.00 in0.0 mm 0.03 in0.8 mm